Academy, New Jersey
Current Conditions -  °F | °C
As of 10:51 AM on Wednesday 26 Nov 2014 (Local Time) from KEWR Reporting Station
Light Snow Light Snow  
Wind Chill: 25°   Ceiling: 500
Heat Index: 33°   Visibility: 1mi
Dew Point: 32°   Wind: 9mph
Humidity: 96%   Direction: 20°NNE
Pressure: 30.11"   Gusts: NA
Location:  40.7334°N, 74.1735°W
Report Text: KEWR 261551Z 02008KT 1SM R04R/4500VP6000FT -SNRA BR FEW003 BKN005 OVC012 01/00 A3011 RMK AO2 SLP194 PLE01 P0011 T00060000
Loading
Personal Weather Stations






























Interactive Weather Map New forecast layout! Learn more

10-Day Weather Forecast

Advertisements
Track Severe Weather on mobile